Terminal Aerodrome Forecast
Issued by NWS Sterling, VA

Current Version | Previous Version | Graphics & Text | Print | Product List | Glossary On
Versions: 1 2 3 4 5 6 7 8 9 10 11 12 13 14 15 16 17 18 19 20 21
791
FTUS41 KLWX 221720
TAFIAD
TAF
KIAD 221720Z 2218/2324 33009KT P6SM SCT040
     FM222300 34005KT P6SM SCT050
     FM231400 10004KT P6SM SCT060
     FM231700 16004KT P6SM SCT050=

USA.gov is the U.S. government's official web portal to all federal, state and local government web resources and services.